Terminal Aerodrome Forecast
Issued by NWS

Home | Current Version | Previous Version | Graphics & Text | Print | Product List | Glossary On
Versions: 1 2 3 4 5 6 7 8 9 10 11 12 13 14 15 16 17
000
FTUS43 KFGF 191100
TAFBJI
TAF
KBJI 191131Z 1912/2012 VRB03KT 5SM BR OVC003
     FM191400 31005KT P6SM BKN005
     FM191600 31005KT P6SM BKN025
     FM200200 VRB03KT P6SM FEW035
     FM200400 VRB03KT P6SM SKC=

USA.gov is the U.S. government's official web portal to all federal, state and local government web resources and services.